Time;durP1;ratioP1;P1;durP2;ratioP2;P2;SDS_P1;SDS_P2;PMS_P1;PMS_P2;Temp;Humidity;BMP_temperature;BMP_pressure;BME280_temperature;BME280_humidity;BME280_pressure;Samples;Min_cycle;Max_cycle;Signal;HPM_P1;HPM_P2
2021/01/18 00:00:11;;;;;;;;;;;1.60;99.90;;;;;;5084162;28;19916;-75
2021/01/18 00:02:37;;;;;;;;;;;1.60;99.90;;;;;;5072523;28;19912;-75
2021/01/18 00:05:03;;;;;;;;;;;1.50;99.90;;;;;;5073139;28;19909;-74
2021/01/18 00:07:28;;;;;;;;;;;1.50;99.90;;;;;;5070735;28;20357;-74
2021/01/18 00:09:54;;;;;;;;;;;1.50;99.90;;;;;;5072349;28;19909;-74
2021/01/18 00:12:19;;;;;;;;;;;1.50;99.90;;;;;;5072401;28;19995;-74
2021/01/18 00:14:45;;;;;;;;;;;1.50;99.90;;;;;;5072532;28;19912;-75
2021/01/18 00:17:10;;;;;;;;;;;1.50;99.90;;;;;;5072144;28;20293;-74
2021/01/18 00:19:35;;;;;;;;;;;1.50;99.90;;;;;;5080752;28;20380;-75
2021/01/18 00:22:01;;;;;;;;;;;1.50;99.90;;;;;;5092463;28;19915;-75
2021/01/18 00:24:26;;;;;;;;;;;1.50;99.90;;;;;;5091722;28;20334;-75
2021/01/18 00:26:52;;;;;;;;;;;1.50;99.90;;;;;;5087623;28;19995;-75
2021/01/18 00:29:17;;;;;;;;;;;1.50;99.90;;;;;;5078469;28;20382;-75
2021/01/18 00:31:43;;;;;;;;;;;1.50;99.90;;;;;;5073173;28;19999;-74
2021/01/18 00:34:09;;;;;;;;;;;1.50;99.90;;;;;;5085481;28;19912;-75
2021/01/18 00:36:34;;;;;;;;;;;1.50;99.90;;;;;;5072187;28;19912;-75
2021/01/18 00:39:00;;;;;;;;;;;1.50;99.90;;;;;;5072192;28;19999;-74
2021/01/18 00:41:25;;;;;;;;;;;1.50;99.90;;;;;;5072058;28;20430;-75
2021/01/18 00:43:51;;;;;;;;;;;1.50;99.90;;;;;;5072136;28;19944;-75
2021/01/18 00:46:17;;;;;;;;;;;1.50;99.90;;;;;;5071652;28;19908;-75
2021/01/18 00:48:42;;;;;;;;;;;1.50;99.90;;;;;;5072111;28;19908;-75
2021/01/18 00:51:08;;;;;;;;;;;1.50;99.90;;;;;;5071752;28;20175;-75
2021/01/18 00:53:33;;;;;;;;;;;1.50;99.90;;;;;;5070651;28;19913;-74
2021/01/18 00:55:59;;;;;;;;;;;1.50;99.90;;;;;;5071548;28;20362;-75
2021/01/18 00:58:24;;;;;;;;;;;1.50;99.90;;;;;;5079470;28;19995;-75
2021/01/18 01:00:49;;;;;;;;;;;1.50;99.90;;;;;;5077299;28;19912;-76
2021/01/18 01:03:15;;;;;;;;;;;1.50;99.90;;;;;;5072359;28;19908;-75
2021/01/18 01:05:40;;;;;;;;;;;1.50;99.90;;;;;;5071274;28;19909;-75
2021/01/18 01:08:06;;;;;;;;;;;1.50;99.90;;;;;;5071736;28;20050;-75
2021/01/18 01:10:33;;;;;;;;;;;1.50;99.90;;;;;;5071713;28;19912;-75
2021/01/18 01:13:00;;;;;;;;;;;1.50;99.90;;;;;;5071880;28;20001;-75
2021/01/18 01:15:26;;;;;;;;;;;1.40;99.90;;;;;;5071632;28;19915;-75
2021/01/18 01:17:51;;;;;;;;;;;1.40;99.90;;;;;;5071468;28;20365;-75
2021/01/18 01:20:18;;;;;;;;;;;1.30;99.90;;;;;;5071543;28;19913;-75
2021/01/18 01:22:43;;;;;;;;;;;1.20;99.90;;;;;;5071616;28;20179;-75
2021/01/18 01:25:10;;;;;;;;;;;1.20;99.90;;;;;;5071815;28;20285;-75
2021/01/18 01:27:36;;;;;;;;;;;1.10;99.90;;;;;;5075224;28;20279;-75
2021/01/18 01:30:02;;;;;;;;;;;1.10;99.90;;;;;;5089776;28;20114;-75
2021/01/18 01:32:28;;;;;;;;;;;1.10;99.90;;;;;;5071484;28;19919;-75
2021/01/18 01:34:53;;;;;;;;;;;1.10;99.90;;;;;;5070507;28;19913;-75
2021/01/18 01:37:19;;;;;;;;;;;1.10;99.90;;;;;;5069932;28;19908;-75
2021/01/18 01:39:44;;;;;;;;;;;1.10;99.90;;;;;;5071257;28;19912;-75
2021/01/18 01:42:22;;;;;;;;;;;1.10;99.90;;;;;;5070206;28;19999;-75
2021/01/18 01:44:48;;;;;;;;;;;1.10;99.90;;;;;;5071343;28;19909;-75
2021/01/18 01:47:21;;;;;;;;;;;1.10;99.90;;;;;;5071082;28;20285;-75
2021/01/18 01:49:47;;;;;;;;;;;1.10;99.90;;;;;;5069544;28;19913;-75
2021/01/18 01:52:12;;;;;;;;;;;1.10;99.90;;;;;;5071476;28;19915;-75
2021/01/18 01:54:38;;;;;;;;;;;1.10;99.90;;;;;;5069736;28;19908;-75
2021/01/18 01:57:04;;;;;;;;;;;1.10;99.90;;;;;;5077420;28;20703;-75
2021/01/18 01:59:29;;;;;;;;;;;1.20;99.90;;;;;;5076539;28;19909;-75
2021/01/18 02:01:55;;;;;;;;;;;1.20;99.90;;;;;;5069813;28;20049;-75
2021/01/18 02:04:22;;;;;;;;;;;1.20;99.90;;;;;;5073926;28;20385;-75
2021/01/18 02:06:47;;;;;;;;;;;1.20;99.90;;;;;;5074899;28;19915;-75
2021/01/18 02:09:13;;;;;;;;;;;1.20;99.90;;;;;;5075157;28;19913;-75
2021/01/18 02:11:39;;;;;;;;;;;1.20;99.90;;;;;;5075200;28;19909;-75
2021/01/18 02:14:23;;;;;;;;;;;1.20;99.90;;;;;;5074843;28;19912;-75
2021/01/18 02:17:00;;;;;;;;;;;1.30;99.90;;;;;;5074821;28;19955;-75
2021/01/18 02:19:44;;;;;;;;;;;1.30;99.90;;;;;;5074424;28;19916;-75
2021/01/18 02:22:28;;;;;;;;;;;1.30;99.90;;;;;;5094109;28;19908;-75
2021/01/18 02:25:12;;;;;;;;;;;1.40;99.90;;;;;;5092521;28;19912;-75
2021/01/18 02:27:56;;;;;;;;;;;1.30;99.90;;;;;;5081348;28;19970;-75
2021/01/18 02:30:48;;;;;;;;;;;1.40;99.90;;;;;;5081485;28;19935;-75
2021/01/18 02:33:32;;;;;;;;;;;1.30;99.90;;;;;;5081416;28;19908;-75
2021/01/18 02:36:16;;;;;;;;;;;1.30;99.90;;;;;;5076844;28;19908;-75
2021/01/18 02:38:51;;;;;;;;;;;1.30;99.90;;;;;;5088171;28;19933;-75
2021/01/18 02:41:34;;;;;;;;;;;1.30;99.90;;;;;;5093569;28;19981;-75
2021/01/18 02:44:01;;;;;;;;;;;1.30;99.90;;;;;;5093474;28;19908;-75
2021/01/18 02:46:27;;;;;;;;;;;1.30;99.90;;;;;;5091918;28;19909;-75
2021/01/18 02:48:52;;;;;;;;;;;1.30;99.90;;;;;;5093379;28;19915;-75
2021/01/18 02:51:19;;;;;;;;;;;1.30;99.90;;;;;;5093463;28;20365;-75
2021/01/18 02:53:58;;;;;;;;;;;1.30;99.90;;;;;;5083089;28;20353;-75
2021/01/18 02:56:27;;;;;;;;;;;1.30;99.90;;;;;;5073525;28;19913;-75
2021/01/18 02:58:53;;;;;;;;;;;1.30;99.90;;;;;;5073812;28;19912;-75
2021/01/18 03:01:25;;;;;;;;;;;1.30;99.90;;;;;;5073891;28;19952;-75
2021/01/18 03:04:04;;;;;;;;;;;1.30;99.90;;;;;;5084863;28;20360;-75
2021/01/18 03:06:44;;;;;;;;;;;1.30;99.90;;;;;;5077624;28;20373;-75
2021/01/18 03:09:14;;;;;;;;;;;1.30;99.90;;;;;;5073805;28;19913;-75
2021/01/18 03:11:42;;;;;;;;;;;1.30;99.90;;;;;;5074126;28;19969;-75
2021/01/18 03:14:10;;;;;;;;;;;1.30;99.90;;;;;;5073544;28;19999;-75
2021/01/18 03:16:37;;;;;;;;;;;1.30;99.90;;;;;;5073079;28;19915;-75
2021/01/18 03:19:04;;;;;;;;;;;1.30;99.90;;;;;;5072255;28;20392;-75
2021/01/18 03:21:30;;;;;;;;;;;1.20;99.90;;;;;;5073464;28;19913;-75
2021/01/18 03:23:55;;;;;;;;;;;1.30;99.90;;;;;;5073335;28;19992;-75
2021/01/18 03:26:25;;;;;;;;;;;1.30;99.90;;;;;;5071767;28;20428;-75
2021/01/18 03:28:54;;;;;;;;;;;1.20;99.90;;;;;;5076303;28;20415;-75
2021/01/18 03:31:20;;;;;;;;;;;1.30;99.90;;;;;;5092664;28;19924;-75
2021/01/18 03:33:46;;;;;;;;;;;1.30;99.90;;;;;;5077274;28;19961;-75
2021/01/18 03:36:12;;;;;;;;;;;1.30;99.90;;;;;;5088812;28;19908;-75
2021/01/18 03:38:37;;;;;;;;;;;1.30;99.90;;;;;;5092393;28;19920;-75
2021/01/18 03:41:03;;;;;;;;;;;1.30;99.90;;;;;;5092284;28;19912;-75
2021/01/18 03:43:28;;;;;;;;;;;1.20;99.90;;;;;;5092428;28;19999;-75
2021/01/18 03:45:54;;;;;;;;;;;1.20;99.90;;;;;;5090612;28;20254;-75
2021/01/18 03:48:19;;;;;;;;;;;1.30;99.90;;;;;;5090747;28;19934;-75
2021/01/18 03:50:45;;;;;;;;;;;1.30;99.90;;;;;;5092252;28;19998;-75
2021/01/18 03:53:11;;;;;;;;;;;1.30;99.90;;;;;;5092268;28;19947;-75
2021/01/18 03:55:37;;;;;;;;;;;1.30;99.90;;;;;;5091879;28;19912;-75
2021/01/18 03:58:03;;;;;;;;;;;1.30;99.90;;;;;;5092196;28;19984;-75
2021/01/18 04:00:29;;;;;;;;;;;1.30;99.90;;;;;;5084712;28;20028;-75
2021/01/18 04:02:55;;;;;;;;;;;1.30;99.90;;;;;;5078608;28;19912;-75
2021/01/18 04:05:21;;;;;;;;;;;1.30;99.90;;;;;;5078137;28;19912;-75
2021/01/18 04:07:47;;;;;;;;;;;1.30;99.90;;;;;;5072218;28;19962;-75
2021/01/18 04:10:14;;;;;;;;;;;1.30;99.90;;;;;;5072530;28;19944;-75
2021/01/18 04:12:40;;;;;;;;;;;1.30;99.90;;;;;;5072248;28;19912;-75
2021/01/18 04:15:06;;;;;;;;;;;1.30;99.90;;;;;;5085401;28;19908;-75
2021/01/18 04:17:32;;;;;;;;;;;1.30;99.90;;;;;;5091333;28;19993;-75
2021/01/18 04:19:58;;;;;;;;;;;1.40;99.90;;;;;;5090215;28;20373;-75
2021/01/18 04:22:23;;;;;;;;;;;1.40;99.90;;;;;;5091713;28;19912;-75
2021/01/18 04:24:48;;;;;;;;;;;1.30;99.90;;;;;;5091429;28;19908;-75
2021/01/18 04:27:14;;;;;;;;;;;1.20;99.90;;;;;;5089383;28;19908;-75
2021/01/18 04:29:39;;;;;;;;;;;1.20;99.90;;;;;;5091430;28;20270;-75
2021/01/18 04:32:05;;;;;;;;;;;1.20;99.90;;;;;;5086035;28;19923;-75
2021/01/18 04:34:30;;;;;;;;;;;1.20;99.90;;;;;;5080700;28;19952;-75
2021/01/18 04:36:56;;;;;;;;;;;1.10;99.90;;;;;;5073394;28;19916;-75
2021/01/18 04:39:21;;;;;;;;;;;1.10;99.90;;;;;;5070515;28;19909;-75
2021/01/18 04:41:47;;;;;;;;;;;1.10;99.90;;;;;;5071760;28;19966;-75
2021/01/18 04:44:14;;;;;;;;;;;1.10;99.90;;;;;;5071810;28;19909;-75
2021/01/18 04:46:46;;;;;;;;;;;1.10;99.90;;;;;;5071279;28;19995;-75
2021/01/18 04:49:12;;;;;;;;;;;1.10;99.90;;;;;;5071708;28;19909;-75
2021/01/18 04:51:46;;;;;;;;;;;1.00;99.90;;;;;;5071838;28;19912;-75
2021/01/18 04:54:13;;;;;;;;;;;1.10;99.90;;;;;;5071688;28;20007;-75
2021/01/18 04:56:57;;;;;;;;;;;1.00;99.90;;;;;;5071275;28;19915;-75
2021/01/18 04:59:24;;;;;;;;;;;1.10;99.90;;;;;;5085053;28;19908;-75
2021/01/18 05:01:51;;;;;;;;;;;1.10;99.90;;;;;;5087903;28;19912;-75
2021/01/18 05:04:27;;;;;;;;;;;1.10;99.90;;;;;;5079109;28;20361;-75
2021/01/18 05:06:58;;;;;;;;;;;1.10;99.90;;;;;;5075965;28;19951;-75
2021/01/18 05:09:26;;;;;;;;;;;1.10;99.90;;;;;;5071368;28;19912;-75
2021/01/18 05:11:52;;;;;;;;;;;1.10;99.90;;;;;;5071443;28;20004;-75
2021/01/18 05:14:17;;;;;;;;;;;1.10;99.90;;;;;;5071490;28;20003;-75
2021/01/18 05:16:44;;;;;;;;;;;1.20;99.90;;;;;;5071139;28;19915;-76
2021/01/18 05:19:10;;;;;;;;;;;1.20;99.90;;;;;;5071471;28;19916;-75
2021/01/18 05:21:38;;;;;;;;;;;1.20;99.90;;;;;;5071395;28;19912;-75
2021/01/18 05:24:03;;;;;;;;;;;1.20;99.90;;;;;;5071191;28;19916;-75
2021/01/18 05:26:30;;;;;;;;;;;1.20;99.90;;;;;;5071351;28;19915;-75
2021/01/18 05:28:55;;;;;;;;;;;1.10;99.90;;;;;;5071061;28;20041;-76
2021/01/18 05:31:27;;;;;;;;;;;1.10;99.90;;;;;;5071220;28;19966;-75
2021/01/18 05:33:56;;;;;;;;;;;1.10;99.90;;;;;;5080021;28;19954;-75
2021/01/18 05:36:42;;;;;;;;;;;1.10;99.90;;;;;;5071843;28;19923;-75
2021/01/18 05:39:07;;;;;;;;;;;1.10;99.90;;;;;;5073584;28;19919;-75
2021/01/18 05:41:33;;;;;;;;;;;0.90;99.90;;;;;;5086120;28;19999;-75
2021/01/18 05:44:01;;;;;;;;;;;0.90;99.90;;;;;;5094563;28;19912;-75
2021/01/18 05:46:27;;;;;;;;;;;0.80;99.90;;;;;;5094331;28;20347;-75
2021/01/18 05:48:53;;;;;;;;;;;0.70;99.90;;;;;;5094442;28;19915;-75
2021/01/18 05:51:22;;;;;;;;;;;0.60;99.90;;;;;;5094501;28;20287;-75
2021/01/18 05:53:49;;;;;;;;;;;0.60;99.90;;;;;;5094284;28;19961;-76
2021/01/18 05:56:18;;;;;;;;;;;0.50;99.90;;;;;;5094103;28;19912;-76
2021/01/18 05:58:44;;;;;;;;;;;0.50;99.90;;;;;;5094333;28;19914;-76
2021/01/18 06:01:09;;;;;;;;;;;0.40;99.90;;;;;;5094339;28;20019;-75
2021/01/18 06:03:35;;;;;;;;;;;0.40;99.90;;;;;;5079984;28;19943;-76
2021/01/18 06:06:00;;;;;;;;;;;0.30;99.90;;;;;;5081498;28;19958;-76
2021/01/18 06:08:26;;;;;;;;;;;0.40;99.90;;;;;;5074576;28;20387;-76
2021/01/18 06:10:53;;;;;;;;;;;0.30;99.90;;;;;;5074675;28;20396;-76
2021/01/18 06:13:18;;;;;;;;;;;0.30;99.90;;;;;;5074620;28;19909;-76
2021/01/18 06:15:45;;;;;;;;;;;0.30;99.90;;;;;;5074268;28;19924;-76
2021/01/18 06:18:17;;;;;;;;;;;0.40;99.90;;;;;;5074767;28;19924;-76
2021/01/18 06:20:45;;;;;;;;;;;0.40;99.90;;;;;;5074525;28;19912;-76
2021/01/18 06:23:19;;;;;;;;;;;0.30;99.90;;;;;;5074612;28;20000;-76
2021/01/18 06:25:48;;;;;;;;;;;0.40;99.90;;;;;;5091648;28;19907;-76
2021/01/18 06:28:33;;;;;;;;;;;0.30;99.90;;;;;;5093609;28;20006;-76
2021/01/18 06:30:59;;;;;;;;;;;0.30;99.90;;;;;;5092275;28;19955;-76
2021/01/18 06:33:35;;;;;;;;;;;0.30;99.90;;;;;;5080641;28;19955;-76
2021/01/18 06:36:10;;;;;;;;;;;0.20;99.90;;;;;;5079403;28;19909;-76
2021/01/18 06:38:36;;;;;;;;;;;0.20;99.90;;;;;;5073491;28;19909;-76
2021/01/18 06:41:01;;;;;;;;;;;0.10;99.90;;;;;;5071745;28;19918;-76
2021/01/18 06:43:27;;;;;;;;;;;0.00;99.90;;;;;;5073006;28;19909;-76
2021/01/18 06:45:52;;;;;;;;;;;-0.10;99.90;;;;;;5074894;28;19924;-76
2021/01/18 06:48:19;;;;;;;;;;;-0.20;99.90;;;;;;5087814;28;19908;-76
2021/01/18 06:50:44;;;;;;;;;;;-0.20;99.90;;;;;;5092742;28;19919;-75
2021/01/18 06:53:10;;;;;;;;;;;-0.20;99.90;;;;;;5084875;28;20288;-75
2021/01/18 06:55:38;;;;;;;;;;;-0.20;99.90;;;;;;5080276;28;19908;-76
2021/01/18 06:58:04;;;;;;;;;;;-0.10;99.90;;;;;;5091908;28;19916;-76
2021/01/18 07:00:30;;;;;;;;;;;-0.10;99.90;;;;;;5075800;28;19923;-76
2021/01/18 07:02:57;;;;;;;;;;;0.00;99.90;;;;;;5084943;28;20326;-76
2021/01/18 07:05:43;;;;;;;;;;;0.10;99.90;;;;;;5085064;28;19908;-76
2021/01/18 07:08:18;;;;;;;;;;;0.10;99.90;;;;;;5080885;28;20357;-76
2021/01/18 07:10:48;;;;;;;;;;;0.20;99.90;;;;;;5092053;28;20403;-75
2021/01/18 07:13:14;;;;;;;;;;;0.30;99.90;;;;;;5091829;28;19954;-76
2021/01/18 07:15:40;;;;;;;;;;;0.40;99.90;;;;;;5087437;28;19915;-76
2021/01/18 07:18:07;;;;;;;;;;;0.40;99.90;;;;;;5090088;28;19955;-76
2021/01/18 07:20:37;;;;;;;;;;;0.50;99.90;;;;;;5091758;28;19912;-75
2021/01/18 07:23:08;;;;;;;;;;;0.50;99.90;;;;;;5074507;28;19912;-76
2021/01/18 07:25:34;;;;;;;;;;;0.50;99.90;;;;;;5072307;28;20502;-76
2021/01/18 07:28:01;;;;;;;;;;;0.60;99.90;;;;;;5076985;28;19912;-76
2021/01/18 07:30:29;;;;;;;;;;;0.60;99.90;;;;;;5046602;28;1269800;-76
2021/01/18 07:33:03;;;;;;;;;;;0.70;99.90;;;;;;5085354;28;20452;-76
2021/01/18 07:35:28;;;;;;;;;;;0.70;99.90;;;;;;5087863;28;19909;-76
2021/01/18 07:38:08;;;;;;;;;;;0.80;99.90;;;;;;5078685;28;19914;-76
2021/01/18 07:40:33;;;;;;;;;;;0.80;99.90;;;;;;5085462;28;20548;-76
2021/01/18 07:42:59;;;;;;;;;;;0.80;99.90;;;;;;5073104;28;19909;-76
2021/01/18 07:45:24;;;;;;;;;;;0.90;99.90;;;;;;5072994;28;20342;-76
2021/01/18 07:47:56;;;;;;;;;;;0.90;99.90;;;;;;5077467;28;19916;-77
2021/01/18 07:50:27;;;;;;;;;;;0.90;99.90;;;;;;5085104;28;20005;-75
2021/01/18 07:52:59;;;;;;;;;;;0.90;99.90;;;;;;5088614;28;19916;-76
2021/01/18 07:55:25;;;;;;;;;;;1.00;99.90;;;;;;5100866;28;19908;-76
2021/01/18 07:57:51;;;;;;;;;;;1.00;99.90;;;;;;5092261;28;19954;-75
2021/01/18 08:00:17;;;;;;;;;;;1.10;99.90;;;;;;5086491;28;19919;-76
2021/01/18 08:02:49;;;;;;;;;;;1.10;99.90;;;;;;5102721;28;19914;-75
2021/01/18 08:05:27;;;;;;;;;;;1.20;99.90;;;;;;5102780;28;20268;-77
2021/01/18 08:08:03;;;;;;;;;;;1.20;99.90;;;;;;5092390;28;19907;-75
2021/01/18 08:10:47;;;;;;;;;;;1.30;99.90;;;;;;5091412;28;20280;-76
2021/01/18 08:13:27;;;;;;;;;;;1.30;99.90;;;;;;5081380;28;20250;-75
2021/01/18 08:15:52;;;;;;;;;;;1.30;99.90;;;;;;5080480;28;19908;-75
2021/01/18 08:18:24;;;;;;;;;;;1.30;99.90;;;;;;5090824;28;19908;-76
2021/01/18 08:20:50;;;;;;;;;;;1.40;99.90;;;;;;5091809;28;20285;-76
2021/01/18 08:23:34;;;;;;;;;;;1.50;99.90;;;;;;5089988;28;19908;-76
2021/01/18 08:26:00;;;;;;;;;;;1.50;99.90;;;;;;5070852;28;19913;-76
2021/01/18 08:28:25;;;;;;;;;;;1.60;99.90;;;;;;5072382;28;19974;-76
2021/01/18 08:30:55;;;;;;;;;;;1.60;99.90;;;;;;5070770;28;19938;-76
2021/01/18 08:33:24;;;;;;;;;;;1.70;99.90;;;;;;5083874;28;19958;-76
2021/01/18 08:35:50;;;;;;;;;;;1.70;99.90;;;;;;5076069;28;19908;-76
2021/01/18 08:38:20;;;;;;;;;;;1.80;99.90;;;;;;5078679;28;19971;-76
2021/01/18 08:40:48;;;;;;;;;;;1.90;99.90;;;;;;5089493;28;19912;-76
2021/01/18 08:43:15;;;;;;;;;;;1.90;99.90;;;;;;5090096;28;19912;-76
2021/01/18 08:45:42;;;;;;;;;;;1.90;99.90;;;;;;5091168;28;19912;-76
2021/01/18 08:48:12;;;;;;;;;;;1.90;99.90;;;;;;5087076;28;19979;-76
2021/01/18 08:50:39;;;;;;;;;;;2.00;99.90;;;;;;5071744;28;19931;-76
2021/01/18 08:53:23;;;;;;;;;;;2.00;99.90;;;;;;5071782;28;19916;-76
2021/01/18 08:55:50;;;;;;;;;;;2.10;99.90;;;;;;5070114;28;19908;-75
2021/01/18 08:58:29;;;;;;;;;;;2.10;99.90;;;;;;5071748;28;19908;-75
2021/01/18 09:00:56;;;;;;;;;;;2.20;99.90;;;;;;5071514;28;19912;-75
2021/01/18 09:03:22;;;;;;;;;;;2.10;99.90;;;;;;5079216;28;19909;-76
2021/01/18 09:05:48;;;;;;;;;;;2.10;99.90;;;;;;5085186;28;20395;-77
2021/01/18 09:08:15;;;;;;;;;;;2.20;99.90;;;;;;5075511;28;19919;-75
2021/01/18 09:10:50;;;;;;;;;;;2.20;99.90;;;;;;5071746;28;19908;-76
2021/01/18 09:13:19;;;;;;;;;;;2.20;99.90;;;;;;5076914;28;19980;-75
2021/01/18 09:15:44;;;;;;;;;;;2.20;99.90;;;;;;5070872;28;19974;-76
2021/01/18 09:18:11;;;;;;;;;;;2.10;99.90;;;;;;5071405;28;19908;-76
2021/01/18 09:20:40;;;;;;;;;;;2.10;99.90;;;;;;5070078;28;20428;-75
2021/01/18 09:23:06;;;;;;;;;;;2.00;99.90;;;;;;5071445;28;19908;-76
2021/01/18 09:25:33;;;;;;;;;;;2.00;99.90;;;;;;5087070;28;19984;-76
2021/01/18 09:28:02;;;;;;;;;;;2.00;99.90;;;;;;5084555;28;19951;-75
2021/01/18 09:30:28;;;;;;;;;;;2.00;99.90;;;;;;5090511;28;19916;-75
2021/01/18 09:32:54;;;;;;;;;;;2.10;99.90;;;;;;5084360;28;19927;-75
2021/01/18 09:35:20;;;;;;;;;;;2.20;99.90;;;;;;5074038;28;19909;-75
2021/01/18 09:37:46;;;;;;;;;;;2.30;99.90;;;;;;5069586;28;19944;-75
2021/01/18 09:40:12;;;;;;;;;;;2.40;99.90;;;;;;5071104;28;19912;-75
2021/01/18 09:42:41;;;;;;;;;;;2.50;99.90;;;;;;5071369;28;19917;-75
2021/01/18 09:45:10;;;;;;;;;;;2.60;99.90;;;;;;5086148;28;20246;-75
2021/01/18 09:47:36;;;;;;;;;;;2.70;99.90;;;;;;5087180;28;19912;-76
2021/01/18 09:50:08;;;;;;;;;;;2.80;99.90;;;;;;5070158;28;20277;-76
2021/01/18 09:52:37;;;;;;;;;;;2.90;99.90;;;;;;5071035;28;19912;-76
2021/01/18 09:55:04;;;;;;;;;;;3.00;99.90;;;;;;5070716;28;20353;-76
2021/01/18 09:57:31;;;;;;;;;;;3.20;99.90;;;;;;5069296;28;19916;-76
2021/01/18 09:59:57;;;;;;;;;;;3.30;99.90;;;;;;5080324;28;19916;-76
2021/01/18 10:02:24;;;;;;;;;;;3.40;99.90;;;;;;5083284;28;19911;-75
2021/01/18 10:04:50;;;;;;;;;;;3.30;99.90;;;;;;5083078;28;19912;-75
2021/01/18 10:07:16;;;;;;;;;;;3.20;99.90;;;;;;5069181;28;20376;-75
2021/01/18 10:09:42;;;;;;;;;;;3.20;99.90;;;;;;5070925;28;20270;-75
2021/01/18 10:12:12;;;;;;;;;;;3.20;99.90;;;;;;5075862;28;19914;-75
2021/01/18 10:14:38;;;;;;;;;;;3.20;99.90;;;;;;5074770;28;20308;-76
2021/01/18 10:17:05;;;;;;;;;;;3.20;99.90;;;;;;5070428;28;20042;-76
2021/01/18 10:19:31;;;;;;;;;;;3.30;99.90;;;;;;5072827;28;20381;-76
2021/01/18 10:21:58;;;;;;;;;;;3.30;99.90;;;;;;5090084;28;19919;-76
2021/01/18 10:24:24;;;;;;;;;;;3.30;99.90;;;;;;5091187;28;19916;-76
2021/01/18 10:26:50;;;;;;;;;;;3.30;99.90;;;;;;5084977;28;19908;-75
2021/01/18 10:29:21;;;;;;;;;;;3.30;99.90;;;;;;5072888;28;20014;-76
2021/01/18 10:31:50;;;;;;;;;;;3.30;99.90;;;;;;5076260;28;19916;-76
2021/01/18 10:34:24;;;;;;;;;;;3.40;99.90;;;;;;5084188;28;19954;-76
2021/01/18 10:36:51;;;;;;;;;;;3.40;99.90;;;;;;5076747;28;19909;-76
2021/01/18 10:39:24;;;;;;;;;;;3.50;99.90;;;;;;5074169;28;19962;-75
2021/01/18 10:41:51;;;;;;;;;;;3.50;99.90;;;;;;5074056;28;19924;-76
2021/01/18 10:44:20;;;;;;;;;;;3.50;99.90;;;;;;5091196;28;19931;-76
2021/01/18 10:46:48;;;;;;;;;;;3.60;99.90;;;;;;5093177;28;19908;-75
2021/01/18 10:49:22;;;;;;;;;;;3.60;99.90;;;;;;5091800;28;20439;-75
2021/01/18 10:51:56;;;;;;;;;;;3.60;99.90;;;;;;5088135;28;19909;-76
2021/01/18 10:54:22;;;;;;;;;;;3.60;99.90;;;;;;5074324;28;19909;-75
2021/01/18 10:56:48;;;;;;;;;;;3.60;99.90;;;;;;5073450;28;19908;-75
2021/01/18 10:59:14;;;;;;;;;;;3.50;99.90;;;;;;5073846;28;19912;-75
2021/01/18 11:01:39;;;;;;;;;;;3.50;99.90;;;;;;5071983;28;20300;-75
2021/01/18 11:04:05;;;;;;;;;;;3.50;99.90;;;;;;5078172;28;19999;-75
2021/01/18 11:06:33;;;;;;;;;;;3.40;99.90;;;;;;5073298;28;19909;-75
2021/01/18 11:08:58;;;;;;;;;;;3.40;99.90;;;;;;5073641;28;20365;-75
2021/01/18 11:11:29;;;;;;;;;;;3.30;99.90;;;;;;5073548;28;19912;-75
2021/01/18 11:13:59;;;;;;;;;;;3.30;99.90;;;;;;5073541;28;19912;-76
2021/01/18 11:16:24;;;;;;;;;;;3.30;99.90;;;;;;5072719;28;19917;-75
2021/01/18 11:18:50;;;;;;;;;;;3.30;99.90;;;;;;5072102;28;19909;-75
2021/01/18 11:21:24;;;;;;;;;;;3.20;99.90;;;;;;5073284;28;19912;-75
2021/01/18 11:23:49;;;;;;;;;;;3.20;99.90;;;;;;5073340;28;20362;-76
2021/01/18 11:26:14;;;;;;;;;;;3.20;99.90;;;;;;5072888;28;19909;-75
2021/01/18 11:28:40;;;;;;;;;;;3.20;99.90;;;;;;5073126;28;19909;-75
2021/01/18 11:31:05;;;;;;;;;;;3.40;99.90;;;;;;5072928;28;20281;-75
2021/01/18 11:33:31;;;;;;;;;;;3.40;99.90;;;;;;5082118;28;19914;-75
2021/01/18 11:35:56;;;;;;;;;;;3.50;99.90;;;;;;5075300;28;20365;-75
2021/01/18 11:38:22;;;;;;;;;;;3.70;99.90;;;;;;5084333;28;19930;-75
2021/01/18 11:40:47;;;;;;;;;;;3.80;99.90;;;;;;5092468;28;20351;-75
2021/01/18 11:43:13;;;;;;;;;;;3.80;99.90;;;;;;5092362;28;19922;-76
2021/01/18 11:45:38;;;;;;;;;;;3.80;99.90;;;;;;5092229;28;19943;-76
2021/01/18 11:48:05;;;;;;;;;;;3.80;99.90;;;;;;5092354;28;19912;-76
2021/01/18 11:50:32;;;;;;;;;;;3.90;99.90;;;;;;5092515;28;20327;-75
2021/01/18 11:52:58;;;;;;;;;;;3.90;99.90;;;;;;5092491;28;20408;-75
2021/01/18 11:55:23;;;;;;;;;;;4.00;99.90;;;;;;5092246;28;19908;-75
2021/01/18 11:57:50;;;;;;;;;;;4.00;99.90;;;;;;5092180;28;19915;-75
2021/01/18 12:00:33;;;;;;;;;;;4.00;99.90;;;;;;5091638;28;19912;-75
2021/01/18 12:03:00;;;;;;;;;;;4.00;99.90;;;;;;5079828;28;19913;-75
2021/01/18 12:05:26;;;;;;;;;;;4.10;99.90;;;;;;5083590;28;19909;-75
2021/01/18 12:07:53;;;;;;;;;;;4.10;99.90;;;;;;5072244;28;20315;-75
2021/01/18 12:10:18;;;;;;;;;;;4.20;99.90;;;;;;5072165;28;19971;-76
2021/01/18 12:12:44;;;;;;;;;;;4.20;99.90;;;;;;5072292;28;19916;-76
2021/01/18 12:15:10;;;;;;;;;;;4.30;99.90;;;;;;5072277;28;20277;-75
2021/01/18 12:17:36;;;;;;;;;;;4.30;99.90;;;;;;5071790;28;19958;-75
2021/01/18 12:20:01;;;;;;;;;;;4.30;99.90;;;;;;5072406;28;19954;-76
2021/01/18 12:22:27;;;;;;;;;;;4.40;99.90;;;;;;5082878;28;19912;-76
2021/01/18 12:24:52;;;;;;;;;;;4.40;99.90;;;;;;5091823;28;20321;-75
2021/01/18 12:27:18;;;;;;;;;;;4.40;99.90;;;;;;5090245;28;19908;-75
2021/01/18 12:29:43;;;;;;;;;;;4.40;99.90;;;;;;5091505;28;19912;-75
2021/01/18 12:32:09;;;;;;;;;;;4.50;99.90;;;;;;5085382;28;19924;-75
2021/01/18 12:34:35;;;;;;;;;;;4.50;99.90;;;;;;5078864;28;19998;-76
2021/01/18 12:37:00;;;;;;;;;;;4.50;99.90;;;;;;5071851;28;19912;-76
2021/01/18 12:39:26;;;;;;;;;;;4.50;99.90;;;;;;5071945;28;19909;-76
2021/01/18 12:41:51;;;;;;;;;;;4.50;99.90;;;;;;5072528;28;19924;-75
2021/01/18 12:44:17;;;;;;;;;;;4.50;99.90;;;;;;5071936;28;19909;-76
2021/01/18 12:46:42;;;;;;;;;;;4.50;99.90;;;;;;5072007;28;20258;-76
2021/01/18 12:49:08;;;;;;;;;;;4.40;99.90;;;;;;5071778;28;19913;-76
2021/01/18 12:51:34;;;;;;;;;;;4.40;99.90;;;;;;5070516;28;19912;-75
2021/01/18 12:53:59;;;;;;;;;;;4.40;99.90;;;;;;5071154;28;20412;-76
2021/01/18 12:56:25;;;;;;;;;;;4.40;99.90;;;;;;5071061;28;19973;-76
2021/01/18 12:58:55;;;;;;;;;;;4.30;99.90;;;;;;5071932;28;19954;-76
2021/01/18 13:01:33;;;;;;;;;;;4.30;99.90;;;;;;5073906;28;20273;-76
2021/01/18 13:03:59;;;;;;;;;;;4.30;99.90;;;;;;5081195;28;20279;-76
2021/01/18 13:06:36;;;;;;;;;;;4.40;99.90;;;;;;5073755;28;19912;-76
2021/01/18 13:09:03;;;;;;;;;;;4.40;99.90;;;;;;5071678;28;19913;-76
2021/01/18 13:11:28;;;;;;;;;;;4.40;99.90;;;;;;5070386;28;19970;-76
2021/01/18 13:13:53;;;;;;;;;;;4.40;99.90;;;;;;5070281;28;20381;-76
2021/01/18 13:16:19;;;;;;;;;;;4.30;99.90;;;;;;5071312;28;19995;-76
2021/01/18 13:18:45;;;;;;;;;;;4.30;99.90;;;;;;5080570;28;20375;-76
2021/01/18 13:21:17;;;;;;;;;;;4.20;99.90;;;;;;5091393;28;19918;-76
2021/01/18 13:23:44;;;;;;;;;;;4.20;99.90;;;;;;5091021;28;19916;-76
2021/01/18 13:26:12;;;;;;;;;;;4.20;99.90;;;;;;5090585;28;19969;-76
2021/01/18 13:28:40;;;;;;;;;;;4.20;99.90;;;;;;5090677;28;19916;-76
2021/01/18 13:31:05;;;;;;;;;;;4.10;99.90;;;;;;5090735;28;20003;-76
2021/01/18 13:33:30;;;;;;;;;;;4.10;99.90;;;;;;5076980;28;19956;-76
2021/01/18 13:35:56;;;;;;;;;;;4.00;99.90;;;;;;5079487;28;19919;-76
2021/01/18 13:38:21;;;;;;;;;;;4.00;99.90;;;;;;5070105;28;20003;-76
2021/01/18 13:40:47;;;;;;;;;;;4.00;99.90;;;;;;5071460;28;19920;-76
2021/01/18 13:43:12;;;;;;;;;;;3.90;99.90;;;;;;5071377;28;19908;-76
2021/01/18 13:45:38;;;;;;;;;;;3.90;99.90;;;;;;5069826;28;19908;-76
2021/01/18 13:48:03;;;;;;;;;;;3.80;99.90;;;;;;5070148;28;19913;-76
2021/01/18 13:50:29;;;;;;;;;;;3.70;99.90;;;;;;5071166;28;20344;-76
2021/01/18 13:52:54;;;;;;;;;;;3.60;99.90;;;;;;5071371;28;19912;-76
2021/01/18 13:55:20;;;;;;;;;;;3.60;99.90;;;;;;5069882;28;20361;-76
2021/01/18 13:57:45;;;;;;;;;;;3.50;99.90;;;;;;5069562;28;19908;-76
2021/01/18 14:00:11;;;;;;;;;;;3.50;99.90;;;;;;5072367;28;19934;-75
2021/01/18 14:02:36;;;;;;;;;;;3.40;99.90;;;;;;5081505;28;19915;-76
2021/01/18 14:05:02;;;;;;;;;;;3.40;99.90;;;;;;5081529;28;19962;-76
2021/01/18 14:07:28;;;;;;;;;;;3.30;99.90;;;;;;5074992;28;20281;-76
2021/01/18 14:09:53;;;;;;;;;;;3.30;99.90;;;;;;5073615;28;19913;-76
2021/01/18 14:12:19;;;;;;;;;;;3.30;99.90;;;;;;5075063;28;19956;-76
2021/01/18 14:14:44;;;;;;;;;;;3.20;99.90;;;;;;5075022;28;20222;-76
2021/01/18 14:17:10;;;;;;;;;;;3.20;99.90;;;;;;5074743;28;19915;-76
2021/01/18 14:19:36;;;;;;;;;;;3.20;99.90;;;;;;5074779;28;20387;-75
2021/01/18 14:22:01;;;;;;;;;;;3.30;99.90;;;;;;5075070;28;19913;-76
2021/01/18 14:24:27;;;;;;;;;;;3.30;99.90;;;;;;5075189;28;19909;-76
2021/01/18 14:26:52;;;;;;;;;;;3.20;99.90;;;;;;5073231;28;19912;-76
2021/01/18 14:29:18;;;;;;;;;;;3.20;99.90;;;;;;5074553;28;19909;-76
2021/01/18 14:31:45;;;;;;;;;;;3.10;99.90;;;;;;5074499;28;19920;-75